Atlanta, Mississippi
Current Conditions -  °F | °C
As of 4:55 PM on Sunday 21 Dec 2014 (Local Time) from KSTF Reporting Station
Broken Clouds Broken Clouds  
Wind Chill: 10°   Ceiling: 2300
Heat Index: 10°   Visibility: 10mi
Dew Point:   Wind: 3mph
Humidity: 82%   Direction: 110°ESE
Pressure: 30.04"   Gusts: NA
Location:  33.7962°N, 89.0553°W
Report Text: KSTF 212255Z AUTO 11003KT 10SM BKN023 10/07 A3004 RMK AO2
Loading
Personal Weather Stations






























Interactive Weather Map New forecast layout! Learn more

10-Day Weather Forecast

Advertisements
Track Severe Weather on mobile